createdAt,value
2019-02-06T00:00:28.093Z,4.9
2019-02-06T00:01:12.405Z,4.9
2019-02-06T00:02:02.172Z,4.9
2019-02-06T00:02:53.085Z,4.9
2019-02-06T00:03:42.562Z,4.9
2019-02-06T00:04:32.642Z,4.9
2019-02-06T00:05:22.427Z,4.9
2019-02-06T00:06:12.770Z,4.9
2019-02-06T00:07:02.567Z,4.9
2019-02-06T00:07:52.892Z,4.9
2019-02-06T00:08:43.958Z,4.9
2019-02-06T00:09:32.736Z,4.8
2019-02-06T00:10:23.049Z,4.9
2019-02-06T00:11:13.147Z,4.8
2019-02-06T00:12:02.928Z,4.9
2019-02-06T00:12:52.966Z,4.8
2019-02-06T00:13:43.352Z,4.8
2019-02-06T00:14:33.925Z,4.8
2019-02-06T00:15:23.249Z,4.8
2019-02-06T00:16:13.552Z,4.8
2019-02-06T00:17:03.062Z,4.8
2019-02-06T00:17:53.641Z,4.8
2019-02-06T00:18:43.735Z,4.8
2019-02-06T00:19:33.683Z,4.8
2019-02-06T00:20:23.859Z,4.8
2019-02-06T00:21:13.641Z,4.8
2019-02-06T00:22:03.862Z,4.8
2019-02-06T00:22:53.647Z,4.8
2019-02-06T00:23:44.907Z,4.8
2019-02-06T00:24:34.153Z,4.8
2019-02-06T00:25:24.096Z,4.8
2019-02-06T00:26:13.614Z,4.8
2019-02-06T00:27:03.939Z,4.8
2019-02-06T00:27:54.009Z,4.8
2019-02-06T00:28:44.329Z,4.8
2019-02-06T00:29:34.481Z,4.8
2019-02-06T00:30:23.896Z,4.8
2019-02-06T00:31:14.223Z,4.8
2019-02-06T00:32:04.558Z,4.8
2019-02-06T00:32:55.035Z,4.8
2019-02-06T00:33:44.703Z,4.8
2019-02-06T00:34:34.468Z,4.8
2019-02-06T00:35:27.611Z,4.8
2019-02-06T00:36:14.858Z,4.8
2019-02-06T00:37:04.770Z,4.8
2019-02-06T00:37:54.973Z,4.8
2019-02-06T00:38:44.755Z,4.8
2019-02-06T00:39:34.812Z,4.8
2019-02-06T00:40:25.163Z,4.8
2019-02-06T00:41:14.663Z,4.8
2019-02-06T00:42:06.345Z,4.8
2019-02-06T00:42:55.327Z,4.8
2019-02-06T00:43:45.385Z,4.8
2019-02-06T00:44:35.455Z,4.8
2019-02-06T00:45:25.517Z,4.8
2019-02-06T00:46:15.575Z,4.8
2019-02-06T00:47:05.648Z,4.8
2019-02-06T00:47:55.515Z,4.8
2019-02-06T00:48:45.747Z,4.8
2019-02-06T00:49:35.816Z,4.8
2019-02-06T00:50:25.926Z,4.8
2019-02-06T00:51:16.354Z,4.8
2019-02-06T00:52:05.697Z,4.8
2019-02-06T00:52:56.039Z,4.8
2019-02-06T00:53:46.097Z,4.8
2019-02-06T00:54:36.236Z,4.8
2019-02-06T00:55:25.941Z,4.8
2019-02-06T00:56:16.004Z,4.8
2019-02-06T00:57:07.076Z,4.8
2019-02-06T00:57:56.109Z,4.8
2019-02-06T00:58:46.459Z,4.8
2019-02-06T00:59:36.276Z,4.8
2019-02-06T01:00:26.299Z,4.8
2019-02-06T01:01:16.637Z,4.8
2019-02-06T01:02:06.414Z,4.8
2019-02-06T01:02:56.753Z,4.8
2019-02-06T01:03:46.833Z,4.8
2019-02-06T01:04:36.584Z,4.8
2019-02-06T01:05:39.681Z,4.8
2019-02-06T01:06:17.903Z,4.8
2019-02-06T01:07:06.883Z,4.8
2019-02-06T01:07:56.839Z,4.8
2019-02-06T01:08:47.171Z,4.8
2019-02-06T01:09:37.226Z,4.8
2019-02-06T01:10:27.016Z,4.8
2019-02-06T01:11:17.056Z,4.8
2019-02-06T01:12:07.406Z,4.8
2019-02-06T01:12:57.188Z,4.8
2019-02-06T01:13:47.090Z,4.8
2019-02-06T01:14:37.405Z,4.8
2019-02-06T01:15:28.356Z,4.8
2019-02-06T01:16:17.696Z,4.8
2019-02-06T01:17:07.751Z,4.8
2019-02-06T01:17:57.839Z,4.8
2019-02-06T01:18:47.909Z,4.8
2019-02-06T01:19:37.654Z,4.8
2019-02-06T01:20:27.983Z,4.8
2019-02-06T01:21:18.565Z,4.7
2019-02-06T01:22:08.124Z,4.8
2019-02-06T01:22:57.888Z,4.7
2019-02-06T01:23:48.223Z,4.7
2019-02-06T01:24:38.287Z,4.7
2019-02-06T01:25:28.345Z,4.7
2019-02-06T01:26:18.415Z,4.7
2019-02-06T01:27:08.462Z,4.7
2019-02-06T01:27:58.607Z,4.7
2019-02-06T01:28:48.572Z,4.7
2019-02-06T01:29:38.633Z,4.7
2019-02-06T01:30:29.792Z,4.7
2019-02-06T01:31:18.750Z,4.7
2019-02-06T01:32:08.817Z,4.7
2019-02-06T01:32:58.919Z,4.7
2019-02-06T01:33:48.924Z,4.7
2019-02-06T01:34:39.066Z,4.7
2019-02-06T01:35:29.050Z,4.7
2019-02-06T01:36:19.589Z,4.7
2019-02-06T01:37:09.032Z,4.7
2019-02-06T01:37:58.941Z,4.7
2019-02-06T01:38:49.019Z,4.6
2019-02-06T01:39:39.058Z,4.7
2019-02-06T01:40:29.401Z,4.7
2019-02-06T01:41:19.474Z,4.7
2019-02-06T01:42:09.517Z,4.7
2019-02-06T01:42:59.021Z,4.6
2019-02-06T01:43:49.354Z,4.6
2019-02-06T01:44:39.696Z,4.6
2019-02-06T01:45:30.383Z,4.6
2019-02-06T01:46:19.551Z,4.6
2019-02-06T01:47:09.688Z,4.6
2019-02-06T01:47:59.927Z,4.6
2019-02-06T01:48:50.007Z,4.6
2019-02-06T01:49:39.775Z,4.6
2019-02-06T01:50:30.103Z,4.6
2019-02-06T01:51:20.156Z,4.6
2019-02-06T01:52:09.955Z,4.6
2019-02-06T01:52:59.455Z,4.6
2019-02-06T01:53:50.198Z,4.6
2019-02-06T01:54:41.353Z,4.6
2019-02-06T01:55:30.460Z,4.6
2019-02-06T01:56:20.601Z,4.6
2019-02-06T01:57:10.579Z,4.6
2019-02-06T01:58:00.662Z,4.6
2019-02-06T01:58:50.430Z,4.6
2019-02-06T01:59:40.765Z,4.6
2019-02-06T02:00:31.560Z,4.6
2019-02-06T02:01:20.597Z,4.6
2019-02-06T02:02:10.660Z,4.6
2019-02-06T02:03:01.112Z,4.6
2019-02-06T02:03:50.765Z,4.6
2019-02-06T02:04:41.102Z,4.6
2019-02-06T02:05:30.903Z,4.6
2019-02-06T02:06:21.229Z,4.6
2019-02-06T02:07:11.128Z,4.6
2019-02-06T02:08:01.067Z,4.5
2019-02-06T02:08:50.861Z,4.5
2019-02-06T02:09:42.130Z,4.6
2019-02-06T02:10:31.530Z,4.5
2019-02-06T02:11:21.307Z,4.5
2019-02-06T02:12:11.105Z,4.5
2019-02-06T02:13:01.707Z,4.5
2019-02-06T02:13:51.214Z,4.5
2019-02-06T02:14:41.547Z,4.5
2019-02-06T02:15:31.892Z,4.5
2019-02-06T02:16:21.669Z,4.5
2019-02-06T02:17:11.727Z,4.5
2019-02-06T02:18:01.782Z,4.5
2019-02-06T02:18:52.781Z,4.5
2019-02-06T02:19:42.181Z,4.5
2019-02-06T02:20:32.239Z,4.4
2019-02-06T02:21:22.031Z,4.5
2019-02-06T02:22:12.402Z,4.5
2019-02-06T02:23:02.144Z,4.4
2019-02-06T02:23:52.190Z,4.4
2019-02-06T02:24:42.703Z,4.4
2019-02-06T02:25:32.578Z,4.4
2019-02-06T02:26:22.371Z,4.4
2019-02-06T02:27:12.431Z,4.4
2019-02-06T02:28:03.840Z,4.4
2019-02-06T02:28:52.817Z,4.4
2019-02-06T02:29:42.881Z,4.4
2019-02-06T02:30:32.695Z,4.4
2019-02-06T02:31:22.731Z,4.4
2019-02-06T02:32:13.058Z,4.4
2019-02-06T02:33:02.853Z,4.4
2019-02-06T02:33:52.903Z,4.4
2019-02-06T02:34:42.970Z,4.4
2019-02-06T02:35:33.304Z,4.4
2019-02-06T02:36:23.087Z,4.4
2019-02-06T02:37:15.678Z,4.4
2019-02-06T02:38:03.485Z,4.4
2019-02-06T02:38:53.531Z,4.4
2019-02-06T02:39:43.340Z,4.4
2019-02-06T02:40:33.660Z,4.3
2019-02-06T02:41:23.718Z,4.4
2019-02-06T02:42:13.958Z,4.4
2019-02-06T02:43:04.092Z,4.4
2019-02-06T02:43:53.900Z,4.4
2019-02-06T02:44:43.950Z,4.4
2019-02-06T02:45:34.065Z,4.3
2019-02-06T02:46:24.464Z,4.3
2019-02-06T02:47:14.125Z,4.3
2019-02-06T02:48:04.190Z,4.4
2019-02-06T02:48:54.247Z,4.3
2019-02-06T02:49:44.292Z,4.3
2019-02-06T02:50:34.082Z,4.3
2019-02-06T02:51:24.450Z,4.3
2019-02-06T02:52:15.077Z,4.3
2019-02-06T02:53:04.311Z,4.3
2019-02-06T02:53:54.618Z,4.3
2019-02-06T02:54:44.649Z,4.3
2019-02-06T02:55:34.555Z,4.3
2019-02-06T02:56:24.911Z,4.3
2019-02-06T02:57:14.839Z,4.3
2019-02-06T02:58:04.891Z,4.3
2019-02-06T02:58:54.971Z,4.3
2019-02-06T02:59:45.002Z,4.3
2019-02-06T03:00:34.834Z,4.3
2019-02-06T03:01:25.958Z,4.3
2019-02-06T03:02:15.183Z,4.3
2019-02-06T03:03:05.246Z,4.3
2019-02-06T03:03:55.324Z,4.3
2019-02-06T03:04:45.360Z,4.3
2019-02-06T03:08:17.706Z,4.2
2019-02-06T03:09:06.833Z,4.3
2019-02-06T03:09:57.169Z,4.3
2019-02-06T03:10:47.003Z,4.3
2019-02-06T03:11:37.016Z,4.2
2019-02-06T03:12:27.063Z,4.3
2019-02-06T03:13:17.118Z,4.3
2019-02-06T03:14:07.507Z,4.3
2019-02-06T03:14:57.513Z,4.2
2019-02-06T03:15:47.610Z,4.2
2019-02-06T03:16:37.641Z,4.2
2019-02-06T03:17:28.662Z,4.2
2019-02-06T03:18:17.470Z,4.2
2019-02-06T03:19:07.824Z,4.2
2019-02-06T03:19:57.880Z,4.2
2019-02-06T03:20:48.104Z,4.2
2019-02-06T03:21:37.997Z,4.2
2019-02-06T03:22:28.072Z,4.2
2019-02-06T03:23:18.658Z,4.2
2019-02-06T03:24:07.987Z,4.1
2019-02-06T03:24:58.223Z,4.1
2019-02-06T03:25:48.286Z,4.2
2019-02-06T03:26:38.082Z,4.1
2019-02-06T03:27:28.409Z,4.1
2019-02-06T03:28:18.200Z,4.1
2019-02-06T03:29:08.509Z,4.1
2019-02-06T03:29:58.592Z,4.1
2019-02-06T03:30:48.679Z,4.1
2019-02-06T03:31:38.830Z,4.1
2019-02-06T03:32:29.286Z,4.1
2019-02-06T03:33:18.886Z,4.1
2019-02-06T03:34:08.899Z,4.1
2019-02-06T03:34:58.674Z,4.1
2019-02-06T03:35:49.094Z,4.1
2019-02-06T03:36:42.311Z,4.1
2019-02-06T03:37:29.106Z,4.1
2019-02-06T03:38:19.199Z,4.1
2019-02-06T03:39:09.217Z,4.1
2019-02-06T03:39:58.716Z,4.1
2019-02-06T03:40:49.354Z,4.1
2019-02-06T03:41:40.091Z,4.1
2019-02-06T03:42:29.201Z,4.1
2019-02-06T03:43:19.621Z,4.1
2019-02-06T03:44:09.306Z,4.1
2019-02-06T03:44:59.632Z,4.1
2019-02-06T03:45:49.705Z,4.1
2019-02-06T03:46:39.885Z,4.1
2019-02-06T03:47:30.306Z,4.1
2019-02-06T03:48:19.856Z,4
2019-02-06T03:49:09.978Z,4
2019-02-06T03:49:59.993Z,4.1
2019-02-06T03:50:50.036Z,4
2019-02-06T03:51:40.105Z,4
2019-02-06T03:52:29.885Z,4
2019-02-06T03:53:19.947Z,4
2019-02-06T03:54:10.270Z,4
2019-02-06T03:55:00.341Z,4
2019-02-06T03:55:50.390Z,4
2019-02-06T03:56:41.231Z,3.9
2019-02-06T03:57:30.506Z,3.9
2019-02-06T03:58:20.567Z,3.9
2019-02-06T03:59:10.627Z,4
2019-02-06T04:00:00.912Z,3.9
2019-02-06T04:00:50.730Z,3.9
2019-02-06T04:01:40.805Z,3.9
2019-02-06T04:02:30.866Z,3.9
2019-02-06T04:03:20.927Z,3.9
2019-02-06T04:04:10.972Z,3.9
2019-02-06T04:05:00.902Z,3.9
2019-02-06T04:05:51.512Z,3.9
2019-02-06T04:07:02.958Z,3.9
2019-02-06T04:07:31.199Z,3.9
2019-02-06T04:08:21.257Z,3.9
2019-02-06T04:09:11.418Z,3.9
2019-02-06T04:10:01.239Z,3.9
2019-02-06T04:10:51.174Z,3.9
2019-02-06T04:11:41.666Z,3.9
2019-02-06T04:12:31.290Z,3.9
2019-02-06T04:13:21.614Z,3.9
2019-02-06T04:14:11.707Z,3.9
2019-02-06T04:15:02.879Z,3.9
2019-02-06T04:15:51.789Z,3.9
2019-02-06T04:16:41.849Z,3.8
2019-02-06T04:17:31.641Z,3.9
2019-02-06T04:18:21.694Z,3.8
2019-02-06T04:19:12.046Z,3.8
2019-02-06T04:20:02.187Z,3.8
2019-02-06T04:20:52.358Z,3.8
2019-02-06T04:21:42.196Z,3.8
2019-02-06T04:22:31.982Z,3.8
2019-02-06T04:23:22.353Z,3.8
2019-02-06T04:24:13.118Z,3.8
2019-02-06T04:25:02.458Z,3.8
2019-02-06T04:25:52.493Z,3.8
2019-02-06T04:26:42.550Z,3.8
2019-02-06T04:27:32.607Z,3.8
2019-02-06T04:28:22.661Z,3.8
2019-02-06T04:29:12.721Z,3.8
2019-02-06T04:30:02.898Z,3.8
2019-02-06T04:30:52.871Z,3.8
2019-02-06T04:31:42.933Z,3.8
2019-02-06T04:32:32.673Z,3.8
2019-02-06T04:33:22.788Z,3.7
2019-02-06T04:34:13.090Z,3.8
2019-02-06T06:06:16.625Z,3
2019-02-06T06:07:06.970Z,3
2019-02-06T06:07:57.986Z,3
2019-02-06T06:08:46.807Z,3
2019-02-06T06:09:37.148Z,3
2019-02-06T06:10:27.195Z,3
2019-02-06T06:11:17.235Z,3
2019-02-06T06:12:07.055Z,3
2019-02-06T06:12:57.362Z,3
2019-02-06T06:13:47.751Z,3
2019-02-06T06:14:37.512Z,3
2019-02-06T06:15:27.259Z,3
2019-02-06T06:16:17.612Z,3
2019-02-06T06:17:07.652Z,3
2019-02-06T06:17:57.734Z,3
2019-02-06T06:18:47.764Z,3
2019-02-06T06:19:37.826Z,3
2019-02-06T06:20:27.871Z,3
2019-02-06T06:21:17.926Z,3
2019-02-06T06:22:08.006Z,3
2019-02-06T06:22:59.052Z,3
2019-02-06T06:23:48.111Z,3
2019-02-06T06:24:37.888Z,3
2019-02-06T06:25:28.541Z,3
2019-02-06T06:26:18.291Z,3
2019-02-06T06:27:08.343Z,3
2019-02-06T06:27:58.400Z,3.1
2019-02-06T06:28:49.100Z,3.1
2019-02-06T06:29:38.239Z,3.1
2019-02-06T06:30:28.424Z,3.1
2019-02-06T06:31:18.651Z,3.1
2019-02-06T06:32:08.703Z,3.1
2019-02-06T06:32:58.767Z,3.1
2019-02-06T06:33:48.548Z,3.1
2019-02-06T06:34:38.588Z,3.1
2019-02-06T06:35:28.392Z,3.1
2019-02-06T06:36:18.709Z,3.1
2019-02-06T06:37:09.035Z,3.1
2019-02-06T06:38:04.255Z,3.2
2019-02-06T06:38:48.886Z,3.2
2019-02-06T06:39:39.223Z,3.2
2019-02-06T06:40:28.998Z,3.2
2019-02-06T06:41:18.787Z,3.3
2019-02-06T06:42:09.147Z,3.3
2019-02-06T06:42:59.181Z,3.3
2019-02-06T06:43:49.499Z,3.3
2019-02-06T06:44:39.277Z,3.4
2019-02-06T06:45:29.628Z,3.4
2019-02-06T06:46:19.399Z,3.4
2019-02-06T06:47:10.717Z,3.4
2019-02-06T06:47:59.514Z,3.5
2019-02-06T06:48:49.571Z,3.5
2019-02-06T06:49:39.929Z,3.6
2019-02-06T06:50:29.982Z,3.6
2019-02-06T06:51:20.118Z,3.7
2019-02-06T06:52:09.799Z,3.8
2019-02-06T06:53:00.601Z,3.8
2019-02-06T06:53:50.196Z,3.9
2019-02-06T06:54:40.269Z,4.1
2019-02-06T06:55:30.046Z,4.1
2019-02-06T06:56:19.842Z,4.3
2019-02-06T06:57:13.541Z,4.4
2019-02-06T06:58:00.226Z,4.4
2019-02-06T06:58:50.556Z,4.5
2019-02-06T06:59:40.722Z,4.6
2019-02-06T07:00:30.684Z,4.7
2019-02-06T07:01:20.736Z,4.7
2019-02-06T07:02:11.349Z,4.8
2019-02-06T07:03:00.572Z,4.8
2019-02-06T07:03:50.627Z,4.9
2019-02-06T07:06:16.588Z,5
2019-02-06T07:07:06.900Z,5.1
2019-02-06T07:08:13.077Z,5.1
2019-02-06T07:08:46.746Z,5.1
2019-02-06T07:09:37.068Z,5.2
2019-02-06T07:10:27.144Z,5.3
2019-02-06T07:11:17.188Z,5.4
2019-02-06T07:12:06.982Z,5.4
2019-02-06T07:12:57.038Z,5.4
2019-02-06T07:13:47.091Z,5.5
2019-02-06T07:14:37.429Z,5.6
2019-02-06T07:15:27.490Z,5.6
2019-02-06T07:16:17.282Z,5.7
2019-02-06T07:17:08.420Z,5.8
2019-02-06T07:17:57.392Z,5.8
2019-02-06T07:18:47.706Z,5.9
2019-02-06T07:19:37.767Z,5.9
2019-02-06T07:20:27.821Z,5.9
2019-02-06T07:21:17.609Z,6
2019-02-06T07:22:07.934Z,6.1
2019-02-06T07:22:57.729Z,6.1
2019-02-06T07:23:47.776Z,6.2
2019-02-06T07:24:38.127Z,6.3
2019-02-06T07:25:27.920Z,6.3
2019-02-06T07:26:18.859Z,6.4
2019-02-06T07:27:08.024Z,6.4
2019-02-06T07:27:58.087Z,6.5
2019-02-06T07:28:48.148Z,6.6
2019-02-06T07:29:38.467Z,6.6
2019-02-06T07:30:28.550Z,6.7
2019-02-06T07:31:18.591Z,6.8
2019-02-06T07:32:08.631Z,6.8
2019-02-06T07:32:58.410Z,6.8
2019-02-06T07:33:48.486Z,6.9
2019-02-06T07:34:38.556Z,6.9
2019-02-06T07:35:29.309Z,6.9
2019-02-06T07:36:18.651Z,7
2019-02-06T07:37:08.722Z,7.1
2019-02-06T07:37:59.038Z,7.1
2019-02-06T07:38:49.103Z,7.1
2019-02-06T07:39:38.896Z,7.1
2019-02-06T07:40:28.940Z,7.2
2019-02-06T07:41:19.784Z,7.2
2019-02-06T07:42:09.333Z,7.2
2019-02-06T07:42:59.403Z,7.3
2019-02-06T07:43:49.460Z,7.3
2019-02-06T07:44:39.537Z,7.3
2019-02-06T07:45:29.579Z,7.3
2019-02-06T07:46:19.643Z,7.3
2019-02-06T07:47:09.691Z,7.3
2019-02-06T07:47:59.755Z,7.3
2019-02-06T07:48:49.818Z,7.3
2019-02-06T07:49:39.872Z,7.3
2019-02-06T07:50:30.429Z,7.3
2019-02-06T07:51:19.705Z,7.3
2019-02-06T07:52:10.042Z,7.3
2019-02-06T07:53:00.218Z,7.3
2019-02-06T07:53:50.221Z,7.3
2019-02-06T07:54:40.197Z,7.4
2019-02-06T07:55:30.280Z,7.3
2019-02-06T07:56:20.339Z,7.4
2019-02-06T07:57:10.385Z,7.3
2019-02-06T07:58:00.492Z,7.4
2019-02-06T07:58:52.220Z,7.4
2019-02-06T07:59:41.468Z,7.4
2019-02-06T08:00:30.364Z,7.3
2019-02-06T08:01:20.530Z,7.3
2019-02-06T08:02:10.742Z,7.4
2019-02-06T08:03:00.803Z,7.4
2019-02-06T08:03:50.569Z,7.4
2019-02-06T08:04:42.869Z,7.4
2019-02-06T08:05:31.354Z,7.4
2019-02-06T08:06:21.034Z,7.3
2019-02-06T08:07:10.805Z,7.4
2019-02-06T08:08:01.135Z,7.4
2019-02-06T08:08:50.925Z,7.4
2019-02-06T08:09:40.980Z,7.4
2019-02-06T08:10:31.045Z,7.4
2019-02-06T08:11:20.820Z,7.4
2019-02-06T08:12:11.460Z,7.4
2019-02-06T08:13:01.215Z,7.4
2019-02-06T08:13:51.542Z,7.4
2019-02-06T08:14:42.382Z,7.4
2019-02-06T08:15:31.376Z,7.4
2019-02-06T08:16:21.732Z,7.4
2019-02-06T08:17:11.782Z,7.4
2019-02-06T08:18:01.590Z,7.4
2019-02-06T08:18:51.897Z,7.4
2019-02-06T08:19:41.952Z,7.5
2019-02-06T08:20:32.019Z,7.5
2019-02-06T08:21:21.532Z,7.5
2019-02-06T08:22:11.859Z,7.5
2019-02-06T08:23:01.931Z,7.5
2019-02-06T08:23:53.044Z,7.5
2019-02-06T08:24:42.306Z,7.6
2019-02-06T08:25:32.367Z,7.6
2019-02-06T08:26:22.426Z,7.6
2019-02-06T08:27:12.208Z,7.6
2019-02-06T08:28:02.550Z,7.7
2019-02-06T08:28:52.593Z,7.7
2019-02-06T08:29:42.663Z,7.7
2019-02-06T08:30:32.436Z,7.8
2019-02-06T08:31:22.781Z,7.8
2019-02-06T08:32:12.551Z,7.9
2019-02-06T08:33:03.664Z,7.9
2019-02-06T08:33:52.669Z,8
2019-02-06T08:34:42.998Z,8.1
2019-02-06T08:35:32.781Z,8.1
2019-02-06T08:36:23.131Z,8.3
2019-02-06T08:37:12.893Z,8.3
2019-02-06T08:38:03.253Z,8.4
2019-02-06T08:38:56.101Z,8.6
2019-02-06T08:39:43.348Z,8.6
2019-02-06T08:40:33.143Z,8.8
2019-02-06T08:41:22.915Z,8.9
2019-02-06T08:42:14.077Z,9
2019-02-06T08:43:03.596Z,9.1
2019-02-06T08:43:53.635Z,9.3
2019-02-06T08:44:43.415Z,9.3
2019-02-06T08:45:33.770Z,9.4
2019-02-06T08:46:23.842Z,9.5
2019-02-06T08:47:13.883Z,9.6
2019-02-06T08:48:04.546Z,9.6
2019-02-06T08:48:53.982Z,9.7
2019-02-06T08:49:44.142Z,9.8
2019-02-06T08:50:34.097Z,9.9
2019-02-06T08:51:23.883Z,9.9
2019-02-06T08:52:14.222Z,9.9
2019-02-06T08:53:04.395Z,10
2019-02-06T08:53:54.070Z,10
2019-02-06T08:54:44.402Z,10.1
2019-02-06T08:55:34.180Z,10.1
2019-02-06T08:56:24.220Z,10.2
2019-02-06T08:57:15.555Z,10.3
2019-02-06T08:58:04.639Z,10.3
2019-02-06T08:58:54.404Z,10.3
2019-02-06T08:59:44.192Z,10.3
2019-02-06T09:00:34.797Z,10.4
2019-02-06T09:01:24.858Z,10.4
2019-02-06T09:02:14.620Z,10.4
2019-02-06T09:03:04.977Z,10.5
2019-02-06T09:03:55.039Z,10.5
2019-02-06T09:04:56.925Z,10.6
2019-02-06T09:05:34.897Z,10.6
2019-02-06T09:06:26.089Z,10.6
2019-02-06T09:07:15.269Z,10.7
2019-02-06T09:08:05.039Z,10.7
2019-02-06T09:09:01.234Z,10.8
2019-02-06T09:09:45.170Z,10.8
2019-02-06T09:10:35.506Z,10.9
2019-02-06T09:11:25.551Z,10.9
2019-02-06T09:12:15.796Z,10.9
2019-02-06T09:13:05.666Z,11.1
2019-02-06T09:13:55.739Z,11.1
2019-02-06T09:14:45.771Z,11.2
2019-02-06T09:15:36.286Z,11.3
2019-02-06T09:16:25.907Z,11.4
2019-02-06T09:17:15.958Z,11.5
2019-02-06T09:18:06.011Z,11.6
2019-02-06T09:18:56.078Z,11.8
2019-02-06T09:19:45.853Z,11.9
2019-02-06T09:20:35.903Z,12
2019-02-06T09:21:26.826Z,12.1
2019-02-06T09:22:16.308Z,12.2
2019-02-06T09:23:06.100Z,12.3
2019-02-06T09:23:56.518Z,12.5
2019-02-06T09:24:46.487Z,12.6
2019-02-06T09:25:36.538Z,12.8
2019-02-06T09:26:26.588Z,12.9
2019-02-06T09:27:16.388Z,13
2019-02-06T09:28:06.431Z,13.1
2019-02-06T09:28:56.771Z,13.3
2019-02-06T09:29:46.827Z,13.4
2019-02-06T09:30:37.954Z,13.5
2019-02-06T09:31:26.940Z,13.6
2019-02-06T09:32:17.005Z,13.7
2019-02-06T09:33:06.809Z,13.8
2019-02-06T09:33:56.561Z,13.9
2019-02-06T09:34:47.170Z,14.1
2019-02-06T09:35:37.240Z,14.1
2019-02-06T09:36:27.402Z,14.2
2019-02-06T09:37:17.077Z,14.3
2019-02-06T09:38:07.135Z,14.4
2019-02-06T09:38:57.471Z,14.5
2019-02-06T09:39:48.007Z,14.6
2019-02-06T09:40:37.613Z,14.7
2019-02-06T09:41:27.376Z,14.8
2019-02-06T09:42:17.475Z,14.8
2019-02-06T09:43:07.755Z,14.8
2019-02-06T09:43:57.816Z,14.9
2019-02-06T09:44:47.865Z,14.9
2019-02-06T09:45:38.540Z,14.9
2019-02-06T09:46:27.979Z,14.9
2019-02-06T09:47:18.077Z,14.9
2019-02-06T09:48:08.212Z,14.9
2019-02-06T09:48:58.159Z,14.9
2019-02-06T09:49:51.304Z,14.9
2019-02-06T09:50:38.281Z,14.9
2019-02-06T09:51:28.329Z,14.9
2019-02-06T09:52:18.124Z,14.8
2019-02-06T09:53:08.174Z,14.8
2019-02-06T09:53:58.509Z,14.8
2019-02-06T09:54:49.316Z,14.8
2019-02-06T09:55:38.162Z,14.8
2019-02-06T09:56:28.791Z,14.8
2019-02-06T09:57:18.743Z,14.8
2019-02-06T09:58:08.831Z,14.8
2019-02-06T09:58:58.873Z,14.7
2019-02-06T09:59:49.010Z,14.7
2019-02-06T10:00:39.143Z,14.6
2019-02-06T10:01:29.026Z,14.6
2019-02-06T10:02:19.088Z,14.6
2019-02-06T10:03:08.870Z,14.6
2019-02-06T10:03:59.323Z,14.6
2019-02-06T10:04:49.276Z,14.6
2019-02-06T10:07:16.805Z,14.4
2019-02-06T10:08:06.768Z,14.4
2019-02-06T10:08:56.813Z,14.4
2019-02-06T10:09:47.928Z,14.4
2019-02-06T10:10:36.938Z,14.3
2019-02-06T10:11:26.711Z,14.3
2019-02-06T10:12:17.048Z,14.3
2019-02-06T10:13:07.201Z,14.2
2019-02-06T10:13:57.395Z,14.2
2019-02-06T10:14:47.220Z,14.1
2019-02-06T10:15:37.325Z,14.1
2019-02-06T10:16:27.071Z,14.1
2019-02-06T10:17:17.395Z,14.1
2019-02-06T10:18:07.181Z,14
2019-02-06T10:18:56.987Z,14
2019-02-06T10:19:47.600Z,13.9
2019-02-06T10:20:37.345Z,13.9
2019-02-06T10:21:27.682Z,13.9
2019-02-06T10:22:17.473Z,13.9
2019-02-06T10:23:07.810Z,13.8
2019-02-06T10:23:57.864Z,13.8
2019-02-06T10:24:48.417Z,13.8
2019-02-06T10:25:38.030Z,13.8
2019-02-06T10:26:27.757Z,13.8
2019-02-06T10:27:18.095Z,13.7
2019-02-06T10:28:08.147Z,13.7
2019-02-06T10:28:58.025Z,13.6
2019-02-06T10:29:48.383Z,13.6
2019-02-06T10:30:38.325Z,13.6
2019-02-06T10:31:28.405Z,13.6
2019-02-06T10:32:18.436Z,13.6
2019-02-06T10:33:08.234Z,13.6
2019-02-06T10:33:59.054Z,13.6
2019-02-06T10:34:48.624Z,13.6
2019-02-06T10:35:38.686Z,13.6
2019-02-06T10:36:28.479Z,13.6
2019-02-06T10:37:18.821Z,13.6
2019-02-06T10:38:08.841Z,13.5
2019-02-06T10:38:58.629Z,13.5
2019-02-06T10:39:48.693Z,13.5
2019-02-06T10:40:38.748Z,13.5
2019-02-06T10:41:29.064Z,13.5
2019-02-06T10:42:18.871Z,13.5
2019-02-06T10:43:10.149Z,13.5
2019-02-06T10:43:59.208Z,13.5
2019-02-06T10:44:49.036Z,13.5
2019-02-06T10:45:39.213Z,13.5
2019-02-06T10:46:29.431Z,13.5
2019-02-06T10:47:19.216Z,13.5
2019-02-06T10:48:09.258Z,13.4
2019-02-06T10:48:59.057Z,13.5
2019-02-06T10:49:49.664Z,13.4
2019-02-06T10:50:39.718Z,13.4
2019-02-06T10:51:29.245Z,13.5
2019-02-06T10:52:20.338Z,13.4
2019-02-06T10:53:09.636Z,13.4
2019-02-06T10:53:59.961Z,13.4
2019-02-06T10:54:50.018Z,13.4
2019-02-06T10:55:39.795Z,13.4
2019-02-06T10:56:30.127Z,13.4
2019-02-06T10:57:19.913Z,13.4
2019-02-06T10:58:11.065Z,13.4
2019-02-06T10:59:00.018Z,13.4
2019-02-06T10:59:50.076Z,13.4
2019-02-06T11:00:40.531Z,13.4
2019-02-06T11:01:30.198Z,13.4
2019-02-06T11:02:20.521Z,13.4
2019-02-06T11:03:10.029Z,13.4
2019-02-06T11:04:00.642Z,13.4
2019-02-06T11:04:50.707Z,13.4
2019-02-06T11:05:40.502Z,13.4
2019-02-06T11:06:30.819Z,13.4
2019-02-06T11:07:21.662Z,13.4
2019-02-06T11:08:10.659Z,13.4
2019-02-06T11:09:00.738Z,13.4
2019-02-06T11:09:51.057Z,13.4
2019-02-06T11:10:41.104Z,13.3
2019-02-06T11:11:31.170Z,13.3
2019-02-06T11:12:21.231Z,13.3
2019-02-06T11:13:11.282Z,13.3
2019-02-06T11:14:01.344Z,13.3
2019-02-06T11:14:51.399Z,13.3
2019-02-06T11:15:41.454Z,13.3
2019-02-06T11:16:31.965Z,13.2
2019-02-06T11:17:21.568Z,13.2
2019-02-06T11:18:11.632Z,13.2
2019-02-06T11:19:01.692Z,13.1
2019-02-06T11:19:51.781Z,13.1
2019-02-06T11:20:41.809Z,13.1
2019-02-06T11:21:31.594Z,13.1
2019-02-06T11:22:22.696Z,13.1
2019-02-06T11:23:11.981Z,13
2019-02-06T11:24:02.134Z,13
2019-02-06T11:24:52.095Z,13
2019-02-06T11:25:42.152Z,12.9
2019-02-06T11:26:32.208Z,12.9
2019-02-06T11:27:22.267Z,12.9
2019-02-06T11:28:12.104Z,12.8
2019-02-06T11:29:02.116Z,12.8
2019-02-06T11:29:52.266Z,12.8
2019-02-06T11:30:42.232Z,12.8
2019-02-06T11:31:33.258Z,12.8
2019-02-06T11:32:22.628Z,12.7
2019-02-06T11:33:12.666Z,12.7
2019-02-06T11:34:02.443Z,12.7
2019-02-06T11:34:52.503Z,12.6
2019-02-06T11:35:42.570Z,12.6
2019-02-06T11:36:32.902Z,12.6
2019-02-06T11:37:22.670Z,12.6
2019-02-06T11:38:12.737Z,12.6
2019-02-06T11:39:02.800Z,12.6
2019-02-06T11:39:59.657Z,12.6
2019-02-06T11:40:43.950Z,12.6
2019-02-06T11:41:32.689Z,12.6
2019-02-06T11:42:23.310Z,12.6
2019-02-06T11:43:13.086Z,12.5
2019-02-06T11:44:18.089Z,12.5
2019-02-06T11:44:53.487Z,12.5
2019-02-06T11:45:43.267Z,12.6
2019-02-06T11:46:33.599Z,12.6
2019-02-06T11:47:23.654Z,12.6
2019-02-06T11:48:13.706Z,12.6
2019-02-06T11:49:03.492Z,12.6
2019-02-06T11:49:54.795Z,12.6
2019-02-06T11:50:43.639Z,12.6
2019-02-06T11:51:33.940Z,12.6
2019-02-06T11:52:23.997Z,12.6
2019-02-06T11:53:14.081Z,12.6
2019-02-06T11:54:04.120Z,12.6
2019-02-06T11:54:54.174Z,12.6
2019-02-06T11:55:44.239Z,12.6
2019-02-06T11:56:34.304Z,12.6
2019-02-06T11:57:25.577Z,12.6
2019-02-06T11:58:14.411Z,12.6
2019-02-06T11:59:05.427Z,12.6
2019-02-06T11:59:54.738Z,12.5
2019-02-06T12:00:44.569Z,12.5
2019-02-06T12:01:34.678Z,12.5
2019-02-06T12:02:24.700Z,12.5
2019-02-06T12:03:14.766Z,12.5
2019-02-06T12:04:04.808Z,12.5
2019-02-06T12:04:55.333Z,12.5
2019-02-06T12:07:16.321Z,12.4
2019-02-06T12:08:06.660Z,12.4
2019-02-06T12:08:56.458Z,12.4
2019-02-06T12:09:46.500Z,12.4
2019-02-06T12:10:37.833Z,12.4
2019-02-06T12:11:26.887Z,12.4
2019-02-06T12:12:16.951Z,12.4
2019-02-06T12:13:07.010Z,12.4
2019-02-06T12:13:57.113Z,12.3
2019-02-06T12:14:47.120Z,12.3
2019-02-06T12:15:39.386Z,12.3
2019-02-06T12:16:27.593Z,12.3
2019-02-06T12:17:17.303Z,12.3
2019-02-06T12:18:07.468Z,12.3
2019-02-06T12:18:57.398Z,12.3
2019-02-06T12:19:47.470Z,12.3
2019-02-06T12:20:37.528Z,12.2
2019-02-06T12:21:27.587Z,12.2
2019-02-06T12:22:17.637Z,12.2
2019-02-06T12:23:07.412Z,12.2
2019-02-06T12:23:57.760Z,12.1
2019-02-06T12:24:47.809Z,12.1
2019-02-06T12:25:39.156Z,12.1
2019-02-06T12:26:27.937Z,12.1
2019-02-06T12:27:17.711Z,12.1
2019-02-06T12:28:07.764Z,12.1
2019-02-06T12:28:58.099Z,12.1
2019-02-06T12:29:48.151Z,12.1
2019-02-06T12:30:38.332Z,12.1
2019-02-06T12:31:28.010Z,12.1
2019-02-06T12:32:18.326Z,12.1
2019-02-06T12:33:08.128Z,12.1
2019-02-06T12:33:58.170Z,12.1
2019-02-06T12:34:49.139Z,12.1
2019-02-06T12:35:38.551Z,12.1
2019-02-06T12:36:28.616Z,12.1
2019-02-06T12:37:18.672Z,12.1
2019-02-06T12:38:08.770Z,12
2019-02-06T12:38:58.808Z,12
2019-02-06T12:39:48.579Z,11.9
2019-02-06T12:40:39.606Z,11.9
2019-02-06T12:41:28.953Z,11.9
2019-02-06T12:42:18.741Z,11.9
2019-02-06T12:43:11.914Z,11.9
2019-02-06T12:43:58.851Z,11.9
2019-02-06T12:44:49.263Z,11.8
2019-02-06T12:45:39.252Z,11.8
2019-02-06T12:46:29.308Z,11.8
2019-02-06T12:47:19.356Z,11.8
2019-02-06T12:48:09.460Z,11.8
2019-02-06T12:48:59.213Z,11.7
2019-02-06T12:49:49.578Z,11.6
2019-02-06T12:50:39.365Z,11.6
2019-02-06T12:51:29.657Z,11.6
2019-02-06T12:52:20.475Z,11.6
2019-02-06T12:53:09.778Z,11.6
2019-02-06T12:53:59.541Z,11.5
2019-02-06T12:54:49.617Z,11.4
2019-02-06T12:55:39.391Z,11.4
2019-02-06T12:56:30.010Z,11.4
2019-02-06T12:57:20.057Z,11.4
2019-02-06T12:58:10.065Z,11.3
2019-02-06T12:59:00.189Z,11.3
2019-02-06T12:59:49.967Z,11.3
2019-02-06T13:00:40.014Z,11.3
2019-02-06T13:01:30.073Z,11.2
2019-02-06T13:02:20.502Z,11.2